• Join FlightAware (Why Join?)
  • Login
  • US Flag 
07:08PM EDT


 

Airport Tracker/Info


-or-


 

Live Flight TrackerFlight Track Log ✈ SKW5631 ✈ 30-Sep-2013 ✈ KSFO - KBUR

Flight Track Log - Related Links

Times and Time Zones

All times are in EDT time to prevent confusion due to time zone crossing. See the SKW5631 flight status page for this flight to view local times or setup timezone preferences in your user account.

Time Position Orientation Groundspeed Altitude Reporting Facility
EDT Latitude Longitude Course Direction KTS MPH feet Rate Location/Type
10:57PM 37.6561 -122.3658 135° Southeast 155 178 1,700  Level Oakland Center
10:58PM 37.6933 -122.4086 318° Northwest 232 267 3,600 1,560 Climbing Oakland Center
10:59PM 37.3252 -122.0093 130° Southeast  Level Estimated
10:59PM 37.6528 -122.4683 229° Southwest 248 285 5,000  Level Oakland Center
11:00PM 37.2270 -121.8879 133° Southeast  Level Estimated
11:00PM 37.5792 -122.4650 178° South 273 314 7,900  Level Oakland Center
11:01PM 37.1287 -121.7669 122° Southeast  Level Estimated
11:01PM 37.5075 -122.4136 150° Southeast 293 337 10,500  Level Oakland Center
11:02PM 37.0609 -121.6837 135° Southeast  Level Estimated
11:02PM 37.4419 -122.3419 139° Southeast 304 350 12,700  Level Oakland Center
11:03PM 37.3725 -122.2653 139° Southeast 325 374 14,700 1,800 Climbing Oakland Center
11:04PM 37.3025 -122.1883 139° Southeast 335 386 16,400 1,620 Climbing Oakland Center
11:05PM 37.2275 -122.1069 139° Southeast 352 405 18,000 1,680 Climbing Oakland Center
11:06PM 37.1375 -122.0083 139° Southeast 358 412 19,900 1,560 Climbing Oakland Center
11:07PM 37.0608 -121.9244 139° Southeast 365 420 21,200 1,260 Climbing Oakland Center
11:08PM 36.9825 -121.8411 140° Southeast 370 426 22,500 1,140 Climbing Oakland Center
11:09PM 36.9003 -121.7572 141° Southeast 381 438 23,600 1,080 Climbing Oakland Center
11:10PM 36.8183 -121.6692 139° Southeast 387 445 24,800 1,080 Climbing Oakland Center
11:11PM 36.7422 -121.5858 139° Southeast 389 448 25,800 840 Climbing Oakland Center
11:12PM 36.6600 -121.4975 139° Southeast 391 450 26,600 540 Climbing Oakland Center
11:13PM 36.5578 -121.3897 140° Southeast 401 461 27,000 180 Climbing Oakland Center
11:14PM 36.4722 -121.2983 139° Southeast 406 467 27,000  Level Oakland Center
11:15PM 36.3894 -121.2083 139° Southeast 399 459 27,000  Level Oakland Center
11:16PM 36.3067 -121.1219 140° Southeast 391 450 27,000  Level Oakland Center
11:17PM 36.2250 -121.0342 139° Southeast 390 449 27,000  Level Oakland Center
11:18PM 36.1400 -120.9458 140° Southeast 396 456 27,000  Level Oakland Center
11:19PM 36.0569 -120.8575 139° Southeast 396 456 27,000  Level Oakland Center
11:20PM 35.9742 -120.7722 140° Southeast 390 449 27,000  Level Oakland Center
11:21PM 35.8933 -120.6867 139° Southeast 386 444 27,000  Level Oakland Center
11:22PM 35.8117 -120.6028 140° Southeast 384 442 27,000  Level Oakland Center
11:23PM 35.7322 -120.5186 139° Southeast 379 436 27,000  Level Oakland Center
11:24PM 35.6339 -120.4181 140° Southeast 381 438 27,000  Level Oakland Center
11:25PM 35.5525 -120.3331 140° Southeast 380 437 27,000  Level Oakland Center
11:26PM 35.4836 -120.2611 140° Southeast 385 443 27,000  Level Oakland Center
11:27PM 35.3975 -120.1753 141° Southeast 393 452 27,000  Level Oakland Center
11:28PM 35.2967 -120.0708 140° Southeast 392 451 27,000  Level Oakland Center
11:29PM 35.2139 -119.9869 140° Southeast 387 445 27,000  Level Oakland Center
11:31PM 35.1314 -119.9036 140° Southeast 385 443 27,000 -420 Level Oakland Center
11:32PM 35.0539 -119.8139 137° Southeast 384 442 26,200 -1,440 Descending Oakland Center
11:33PM 34.9844 -119.7172 131° Southeast 380 437 24,100 -2,040 Descending Oakland Center
11:34PM 34.9158 -119.6239 132° Southeast 374 430 22,100 -1,980 Descending Oakland Center
11:35PM 34.8492 -119.5350 132° Southeast 365 420 20,100 -1,980 Descending Oakland Center
11:36PM 34.7844 -119.4486 132° Southeast 355 409 18,100 -1,980 Descending Oakland Center
11:37PM 34.7211 -119.3633 132° Southeast 347 399 16,100 -1,860 Descending Oakland Center
11:38PM 34.6450 -119.2644 133° Southeast 336 387 14,000 -1,620 Descending Los Angeles Center
11:39PM 34.5825 -119.1819 133° Southeast 326 375 12,500 -1,440 Descending Los Angeles Center
11:40PM 34.5222 -119.1036 133° Southeast 320 368 11,100 -1,140 Descending Los Angeles Center
11:41PM 34.4697 -119.0242 129° Southeast 302 348 10,200 -540 Descending Los Angeles Center
11:42PM 34.4069 -118.9264 128° Southeast 308 354 10,000 -480 Descending Los Angeles Center
11:43PM 34.3550 -118.8497 129° Southeast 288 331 9,300 -1,320 Descending Los Angeles Center
11:44PM 34.3061 -118.7761 129° Southeast 279 321 7,400 -1,800 Descending Los Angeles Center
11:45PM 34.2586 -118.7022 128° Southeast 277 319 5,600 -1,620 Descending Los Angeles Center
11:46PM 34.2125 -118.6300 128° Southeast 274 315 4,100 -1,320 Descending Los Angeles Center
11:47PM 34.2000 -118.5667 103° East 238 274 3,400 -660 Descending Southern California TRACON
11:48PM 34.2000 -118.5000 90° East 200 230 3,100 -600 Descending Southern California TRACON
11:49PM 34.2000 -118.4500 90° East 142 163 2,200 -900 Descending Southern California TRACON
11:50PM 34.2000 -118.4000 90° East 132 152 1,400 -840 Descending Southern California TRACON